Time;durP1;ratioP1;P1;durP2;ratioP2;P2;SDS_P1;SDS_P2;PMS_P1;PMS_P2;Temp;Humidity;BMP_temperature;BMP_pressure;BME280_temperature;BME280_humidity;BME280_pressure;Samples;Min_cycle;Max_cycle;Signal;HPM_P1;HPM_P2
2022/04/13 00:00:55;;;;;;;13.18;7.80;;;;;;;4.50;66.64;100572.59;6320360;28;20068;-70
2022/04/13 00:03:56;;;;;;;13.82;7.78;;;;;;;4.48;66.58;100575.22;6271928;28;20055;-71
2022/04/13 00:07:01;;;;;;;15.32;7.60;;;;;;;4.46;66.27;100568.41;6304611;28;20055;-70
2022/04/13 00:10:04;;;;;;;14.80;7.72;;;;;;;4.42;66.90;100565.06;6321757;28;20044;-70
2022/04/13 00:13:05;;;;;;;12.27;7.35;;;;;;;4.37;66.67;100572.09;6321683;28;20063;-70
2022/04/13 00:16:05;;;;;;;13.40;7.90;;;;;;;4.30;66.27;100557.63;6321884;28;20036;-71
2022/04/13 00:19:06;;;;;;;17.08;7.20;;;;;;;4.26;65.83;100571.53;6303593;28;20040;-70
2022/04/13 00:22:07;;;;;;;14.32;7.47;;;;;;;4.27;66.42;100570.66;6320676;28;20036;-70
2022/04/13 00:25:08;;;;;;;14.18;7.10;;;;;;;4.22;67.14;100565.59;6321815;28;20138;-70
2022/04/13 00:28:10;;;;;;;12.27;6.57;;;;;;;4.19;65.44;100571.69;6321516;28;20127;-71
2022/04/13 00:31:10;;;;;;;11.25;6.43;;;;;;;4.18;66.21;100564.84;6320413;28;20123;-70
2022/04/13 00:34:11;;;;;;;13.20;5.95;;;;;;;4.17;65.92;100567.44;6321551;28;20391;-70
2022/04/13 00:37:12;;;;;;;10.88;6.18;;;;;;;4.14;65.47;100567.50;6320343;28;20051;-70
2022/04/13 00:40:13;;;;;;;10.80;6.50;;;;;;;4.10;66.51;100563.31;6336994;28;20072;-70
2022/04/13 00:43:14;;;;;;;11.43;6.80;;;;;;;4.09;65.21;100569.38;6320358;28;20605;-70
2022/04/13 00:46:14;;;;;;;12.98;6.65;;;;;;;4.04;66.86;100566.94;6320464;28;20046;-75
2022/04/13 00:49:16;;;;;;;12.05;6.25;;;;;;;4.01;65.85;100565.25;6320269;28;20082;-75
2022/04/13 00:52:19;;;;;;;11.70;5.85;;;;;;;4.00;64.32;100568.75;6336346;28;20055;-75
2022/04/13 00:55:24;;;;;;;9.30;5.55;;;;;;;4.01;65.17;100565.25;6319707;28;20036;-75
2022/04/13 00:58:28;;;;;;;10.85;5.95;;;;;;;4.01;65.59;100567.00;6321778;28;20044;-75
2022/04/13 01:01:28;;;;;;;9.38;5.38;;;;;;;3.99;65.37;100563.59;6320555;28;20048;-75
2022/04/13 01:04:30;;;;;;;9.90;5.60;;;;;;;3.95;63.04;100567.16;6320657;28;20403;-75
2022/04/13 01:07:31;;;;;;;9.55;5.72;;;;;;;3.94;62.31;100568.91;6320470;28;20048;-75
2022/04/13 01:10:32;;;;;;;10.23;5.70;;;;;;;3.93;64.50;100566.34;6320453;28;20048;-74
2022/04/13 01:13:33;;;;;;;10.55;6.05;;;;;;;3.90;64.51;100569.84;6305629;28;20062;-74
2022/04/13 01:16:37;;;;;;;12.82;6.00;;;;;;;3.89;64.35;100575.06;6308761;28;20040;-74
2022/04/13 01:19:39;;;;;;;9.63;5.60;;;;;;;3.88;65.29;100574.22;6325327;28;20055;-75
2022/04/13 01:22:40;;;;;;;11.50;5.93;;;;;;;3.85;65.16;100576.88;6324816;28;20457;-70
2022/04/13 01:25:51;;;;;;;12.73;5.82;;;;;;;3.80;65.54;100581.31;6324838;28;20047;-71
2022/04/13 01:28:52;;;;;;;10.18;5.60;;;;;;;3.76;66.94;100583.09;6324678;28;20055;-75
2022/04/13 01:31:54;;;;;;;11.57;5.53;;;;;;;3.72;67.15;100581.47;6325026;28;20067;-75
2022/04/13 01:34:55;;;;;;;;;;;;;;;3.67;66.91;100585.91;6292520;28;20040;-75
2022/04/13 01:37:56;;;;;;;10.10;5.53;;;;;;;3.64;65.53;100598.88;6325105;28;19919;-74
2022/04/13 01:40:57;;;;;;;9.45;5.18;;;;;;;3.61;65.23;100589.47;6326062;28;20047;-75
2022/04/13 01:43:58;;;;;;;9.57;5.32;;;;;;;3.58;65.61;100589.56;6324936;28;20038;-74
2022/04/13 01:46:59;;;;;;;12.63;5.55;;;;;;;3.56;66.33;100590.47;6325062;28;20040;-75
2022/04/13 01:50:00;;;;;;;11.30;5.47;;;;;;;3.56;66.17;100591.34;6324732;28;20043;-75
2022/04/13 01:53:01;;;;;;;9.50;5.10;;;;;;;3.54;67.75;100590.53;6325866;28;20040;-75
2022/04/13 01:56:02;;;;;;;7.68;4.95;;;;;;;3.53;64.92;100598.28;6325677;28;20058;-75
2022/04/13 01:59:03;;;;;;;10.40;5.38;;;;;;;3.56;61.98;100596.50;6324554;28;20549;-71
2022/04/13 02:02:04;;;;;;;9.07;5.35;;;;;;;3.52;63.04;100588.84;6325153;28;20044;-75
2022/04/13 02:05:06;;;;;;;10.98;5.10;;;;;;;3.57;60.42;100592.19;6326217;28;20036;-74
2022/04/13 02:08:07;;;;;;;11.50;5.77;;;;;;;3.59;60.99;100604.16;6324246;28;20096;-75
2022/04/13 02:11:07;;;;;;;10.35;5.32;;;;;;;3.64;62.13;100601.47;6324952;28;20434;-70
2022/04/13 02:14:08;;;;;;;9.77;5.65;;;;;;;3.63;60.87;100595.47;6306471;28;20052;-70
2022/04/13 02:17:10;;;;;;;9.18;5.28;;;;;;;3.65;61.18;100590.28;6323430;28;20044;-71
2022/04/13 02:20:11;;;;;;;9.73;5.55;;;;;;;3.61;62.76;100586.06;6322441;28;20518;-70
2022/04/13 02:23:12;;;;;;;8.98;5.63;;;;;;;3.63;60.75;100589.47;6322439;28;20063;-71
2022/04/13 02:26:13;;;;;;;11.02;6.32;;;;;;;3.56;60.57;100593.91;6306221;28;20078;-70
2022/04/13 02:29:14;;;;;;;12.07;6.15;;;;;;;3.54;61.65;100581.91;6324208;28;20052;-71
2022/04/13 02:32:15;;;;;;;12.23;5.47;;;;;;;3.54;61.86;100587.06;6322946;28;20047;-70
2022/04/13 02:35:16;;;;;;;9.77;5.57;;;;;;;3.51;61.99;100585.44;6324153;28;20048;-70
2022/04/13 02:38:17;;;;;;;10.20;5.38;;;;;;;3.50;62.05;100590.63;6307081;28;20048;-75
2022/04/13 02:41:17;;;;;;;9.32;5.80;;;;;;;3.49;61.08;100599.25;6323403;28;20051;-75
2022/04/13 02:44:18;;;;;;;11.02;5.82;;;;;;;3.43;60.33;100603.66;6324541;28;20040;-75
2022/04/13 02:47:19;;;;;;;9.75;5.63;;;;;;;3.35;61.34;100597.81;6323390;28;20044;-75
2022/04/13 02:50:20;;;;;;;9.02;5.35;;;;;;;3.28;62.52;100598.84;6322921;28;20456;-75
2022/04/13 02:53:22;;;;;;;14.27;5.88;;;;;;;3.23;64.55;100604.13;6289756;28;20036;-75
2022/04/13 02:56:22;;;;;;;14.20;6.43;;;;;;;3.14;63.71;100601.72;6324149;28;20123;-75
2022/04/13 02:59:23;;;;;;;11.82;6.15;;;;;;;3.13;67.13;100596.59;6323022;28;20089;-75
2022/04/13 03:02:29;;;;;;;12.45;5.43;;;;;;;3.10;65.85;100601.84;6324020;28;20127;-75
2022/04/13 03:05:30;;;;;;;12.23;5.88;;;;;;;3.12;68.41;100602.66;6322937;28;20075;-75
2022/04/13 03:08:31;;;;;;;11.88;6.03;;;;;;;3.11;67.59;100600.94;6289349;28;20052;-75
2022/04/13 03:11:32;;;;;;;10.18;6.30;;;;;;;3.06;68.84;100593.31;6288585;28;20096;-75
2022/04/13 03:14:33;;;;;;;12.23;5.80;;;;;;;3.01;69.92;100598.56;6305620;28;20396;-75
2022/04/13 03:17:34;;;;;;;12.35;6.05;;;;;;;3.00;72.23;100602.00;6322051;28;20526;-70
2022/04/13 03:20:35;;;;;;;9.40;5.82;;;;;;;2.94;70.78;100598.72;6323645;28;20048;-70
2022/04/13 03:23:36;;;;;;;11.35;5.63;;;;;;;2.90;73.48;100602.25;6321768;28;20052;-71
2022/04/13 03:26:36;;;;;;;14.68;5.85;;;;;;;2.85;73.32;100606.66;6305028;28;20048;-70
2022/04/13 03:29:37;;;;;;;11.23;6.35;;;;;;;2.80;72.92;100599.00;6321617;28;20044;-70
2022/04/13 03:32:38;;;;;;;10.13;6.10;;;;;;;2.78;71.97;100603.34;6304627;28;20078;-70
2022/04/13 03:35:39;;;;;;;10.27;6.00;;;;;;;2.75;72.01;100608.56;6320768;28;20048;-70
2022/04/13 03:38:40;;;;;;;10.38;6.18;;;;;;;2.74;72.14;100614.56;6304871;28;20147;-70
2022/04/13 03:41:41;;;;;;;9.98;6.00;;;;;;;2.71;73.05;100620.66;6338196;28;20067;-70
2022/04/13 03:44:41;;;;;;;16.75;6.18;;;;;;;2.71;73.46;100619.81;6321500;28;20119;-70
2022/04/13 03:47:42;;;;;;;12.50;6.60;;;;;;;2.70;71.46;100623.25;6338548;28;20431;-75
2022/04/13 03:50:43;;;;;;;16.02;8.05;;;;;;;2.61;69.86;100612.28;6288256;28;20051;-75
2022/04/13 03:53:44;;;;;;;19.73;7.95;;;;;;;2.70;67.75;100628.41;6321731;28;20056;-75
2022/04/13 03:56:45;;;;;;;12.55;7.43;;;;;;;2.72;66.50;100624.94;6288162;28;20091;-75
2022/04/13 03:59:46;;;;;;;15.35;7.07;;;;;;;2.73;65.21;100628.34;6320356;28;20048;-75
2022/04/13 04:02:47;;;;;;;11.20;7.32;;;;;;;2.81;67.16;100621.31;6303382;28;20443;-75
2022/04/13 04:05:47;;;;;;;12.07;7.45;;;;;;;2.82;66.00;100628.16;6338237;28;20516;-75
2022/04/13 04:08:49;;;;;;;14.93;7.53;;;;;;;2.86;67.27;100628.97;6338246;28;20822;-75
2022/04/13 04:11:50;;;;;;;11.45;6.28;;;;;;;2.86;63.95;100631.53;6321359;28;20523;-75
2022/04/13 04:14:50;;;;;;;16.30;6.43;;;;;;;2.89;63.67;100632.34;6287467;28;20056;-75
2022/04/13 04:17:51;;;;;;;33.10;14.32;;;;;;;2.93;63.68;100631.38;6322596;28;20051;-75
2022/04/13 04:20:52;;;;;;;24.98;12.45;;;;;;;2.95;63.27;100646.84;6304555;28;20524;-75
2022/04/13 04:23:53;;;;;;;38.47;16.98;;;;;;;3.02;62.85;100649.22;6321103;28;20060;-75
2022/04/13 04:26:54;;;;;;;52.28;23.20;;;;;;;3.14;61.57;100655.03;6321068;28;20074;-75
2022/04/13 04:29:55;;;;;;;85.45;30.80;;;;;;;3.27;62.34;100642.72;6320474;28;20040;-75
2022/04/13 04:32:56;;;;;;;30.55;14.25;;;;;;;3.28;62.02;100652.19;6304311;28;20036;-74
2022/04/13 04:35:57;;;;;;;18.02;8.00;;;;;;;3.38;60.59;100653.69;6304061;28;20078;-75
2022/04/13 04:38:58;;;;;;;21.98;7.40;;;;;;;3.44;59.79;100650.97;6321124;28;20040;-75
2022/04/13 04:41:59;;;;;;;14.90;8.70;;;;;;;3.55;59.37;100653.31;6319662;28;20044;-70
2022/04/13 04:45:00;;;;;;;36.42;15.50;;;;;;;3.62;59.59;100653.13;6303214;28;20056;-69
2022/04/13 04:48:04;;;;;;;25.35;10.70;;;;;;;3.71;58.64;100662.38;6303351;28;20072;-70
2022/04/13 04:51:05;;;;;;;34.72;13.57;;;;;;;3.83;58.69;100662.09;6302859;28;20385;-70
2022/04/13 04:54:06;;;;;;;30.80;13.32;;;;;;;3.90;59.02;100667.13;6319317;28;20076;-70
2022/04/13 04:57:08;;;;;;;21.13;10.77;;;;;;;3.90;59.69;100667.97;6320049;28;20036;-70
2022/04/13 05:00:12;;;;;;;12.60;6.47;;;;;;;4.01;58.64;100671.13;6295191;28;21067;-69
2022/04/13 05:03:13;;;;;;;13.85;6.88;;;;;;;4.10;60.46;100670.09;6295885;28;20041;-70
2022/04/13 05:06:22;;;;;;;11.87;6.67;;;;;;;4.14;60.65;100686.31;6288851;28;20083;-70
2022/04/13 05:09:24;;;;;;;11.13;6.13;;;;;;;4.18;60.31;100681.06;6282438;28;20052;-70
2022/04/13 05:12:26;;;;;;;11.98;6.60;;;;;;;4.28;59.44;100675.66;6285995;28;20201;-70
2022/04/13 05:15:27;;;;;;;12.48;7.65;;;;;;;4.33;59.31;100669.50;6301672;28;20143;-70
2022/04/13 05:18:27;;;;;;;13.50;7.18;;;;;;;4.53;59.69;100676.75;6293298;28;20067;-70
2022/04/13 05:21:28;;;;;;;14.38;7.35;;;;;;;4.65;60.02;100680.72;6295753;28;20044;-69
2022/04/13 05:24:29;;;;;;;11.63;6.43;;;;;;;4.77;58.99;100680.41;6315550;28;20040;-70
2022/04/13 05:27:30;;;;;;;14.40;7.45;;;;;;;4.85;58.43;100683.63;6318782;28;20048;-69
2022/04/13 05:30:31;;;;;;;12.02;6.07;;;;;;;5.12;56.57;100682.91;6315641;28;20074;-70
2022/04/13 05:33:32;;;;;;;9.57;5.78;;;;;;;5.28;57.57;100685.91;6297670;28;20044;-69
2022/04/13 05:36:33;;;;;;;19.75;7.65;;;;;;;5.47;58.49;100694.81;6315185;28;20473;-70
2022/04/13 05:39:37;;;;;;;13.85;6.72;;;;;;;5.67;57.13;100690.81;6294703;28;20078;-70
2022/04/13 05:42:38;;;;;;;21.00;9.30;;;;;;;5.85;55.66;100698.00;6292184;28;20139;-70
2022/04/13 05:45:39;;;;;;;13.73;6.88;;;;;;;6.07;56.30;100700.78;6293220;28;20113;-73
2022/04/13 05:48:40;;;;;;;10.80;5.25;;;;;;;6.21;52.37;100700.34;6294312;28;20040;-71
2022/04/13 05:51:40;;;;;;;18.00;7.57;;;;;;;6.37;55.42;100709.31;6276271;28;20043;-75
2022/04/13 05:54:41;;;;;;;18.73;8.05;;;;;;;6.46;53.45;100715.91;6276440;28;20554;-75
2022/04/13 05:57:42;;;;;;;9.80;5.65;;;;;;;6.61;52.63;100715.41;6309759;28;20045;-75
2022/04/13 06:00:43;;;;;;;9.43;4.57;;;;;;;6.73;53.20;100724.50;6296542;28;20419;-71
2022/04/13 06:03:44;;;;;;;9.10;4.45;;;;;;;6.89;51.53;100726.59;6298484;28;20060;-71
2022/04/13 06:06:45;;;;;;;11.23;5.18;;;;;;;7.02;51.82;100722.66;6297103;28;20052;-71
2022/04/13 06:09:45;;;;;;;10.30;5.03;;;;;;;7.16;51.83;100732.53;6313932;28;20511;-71
2022/04/13 06:12:50;;;;;;;8.73;4.72;;;;;;;7.33;49.08;100737.09;6296974;28;20043;-71
2022/04/13 06:15:51;;;;;;;10.20;4.47;;;;;;;7.49;51.56;100735.66;6296909;28;20060;-71
2022/04/13 06:18:52;;;;;;;9.23;4.90;;;;;;;7.63;48.79;100743.75;6298228;28;20048;-71
2022/04/13 06:21:52;;;;;;;8.27;4.45;;;;;;;7.80;49.74;100750.94;6296818;28;20539;-71
2022/04/13 06:24:53;;;;;;;7.18;4.18;;;;;;;7.80;46.08;100744.88;6296814;28;20689;-71
2022/04/13 06:27:54;;;;;;;14.77;4.90;;;;;;;8.08;49.24;100749.84;6297197;28;20063;-75
2022/04/13 06:30:55;;;;;;;12.63;4.60;;;;;;;8.27;47.69;100744.75;6296631;28;20049;-75
2022/04/13 06:33:56;;;;;;;11.00;4.90;;;;;;;8.44;46.82;100751.91;6296592;28;20487;-75
2022/04/13 06:36:56;;;;;;;8.55;4.43;;;;;;;8.54;43.79;100752.38;6296580;28;20052;-75
2022/04/13 06:39:57;;;;;;;10.02;4.88;;;;;;;8.77;44.82;100754.88;6297914;28;20048;-75
2022/04/13 06:42:58;;;;;;;13.55;5.90;;;;;;;8.87;48.13;100747.50;6296259;28;20048;-75
2022/04/13 06:45:59;;;;;;;10.35;5.30;;;;;;;9.01;45.10;100755.56;6296424;28;20048;-75
2022/04/13 06:49:08;;;;;;;7.72;4.40;;;;;;;9.19;43.74;100748.72;6297656;28;20041;-75
2022/04/13 06:52:09;;;;;;;7.72;3.85;;;;;;;9.38;42.92;100761.75;6296168;28;20051;-76
2022/04/13 06:55:11;;;;;;;7.30;4.20;;;;;;;9.52;44.91;100757.69;6296364;28;20478;-76
2022/04/13 06:58:11;;;;;;;13.20;4.78;;;;;;;9.72;44.96;100765.44;6312976;28;20048;-76
2022/04/13 07:01:13;;;;;;;7.53;3.97;;;;;;;9.85;44.20;100768.31;6297361;28;20439;-76
2022/04/13 07:04:14;;;;;;;7.90;4.20;;;;;;;10.03;44.43;100761.41;6312850;28;20193;-76
2022/04/13 07:07:14;;;;;;;9.27;4.43;;;;;;;10.20;42.36;100755.38;6295910;28;20289;-76
2022/04/13 07:10:15;;;;;;;8.48;4.35;;;;;;;10.33;41.27;100759.09;6294928;28;20053;-76
2022/04/13 07:13:16;;;;;;;7.88;4.40;;;;;;;10.53;42.74;100765.13;6316391;28;20067;-76
2022/04/13 07:16:17;;;;;;;8.38;4.30;;;;;;;10.74;39.72;100765.81;6298654;28;20060;-76
2022/04/13 07:19:18;;;;;;;6.78;3.75;;;;;;;10.94;41.75;100768.25;6285179;28;20055;-76
2022/04/13 07:22:19;;;;;;;4.95;3.35;;;;;;;10.84;36.77;100767.88;6311665;28;20055;-76
2022/04/13 07:25:21;;;;;;;6.85;3.22;;;;;;;10.98;37.45;100769.78;6320727;28;20085;-76
2022/04/13 07:28:21;;;;;;;9.07;3.90;;;;;;;11.14;39.57;100775.06;6337821;28;20055;-76
2022/04/13 07:31:22;;;;;;;5.38;3.33;;;;;;;11.44;37.95;100779.59;6337655;28;20056;-76
2022/04/13 07:34:23;;;;;;;6.57;2.92;;;;;;;11.27;34.95;100773.50;6337338;28;20075;-76
2022/04/13 07:37:24;;;;;;;4.47;2.55;;;;;;;11.15;32.90;100775.91;6337287;28;20560;-76
2022/04/13 07:40:25;;;;;;;4.40;2.35;;;;;;;11.25;34.38;100772.72;6316234;28;20048;-76
2022/04/13 07:43:26;;;;;;;6.38;2.95;;;;;;;11.65;36.31;100767.16;6278374;28;20052;-76
2022/04/13 07:46:27;;;;;;;5.72;2.90;;;;;;;11.99;35.28;100774.03;6311843;28;20053;-76
2022/04/13 07:49:28;;;;;;;4.53;3.00;;;;;;;12.16;33.88;100767.84;6294905;28;20052;-76
2022/04/13 07:52:33;;;;;;;5.55;2.80;;;;;;;12.25;34.88;100766.47;6311562;28;20082;-76
2022/04/13 07:55:34;;;;;;;7.15;3.63;;;;;;;12.41;34.22;100763.84;6295093;28;20059;-77
2022/04/13 07:58:35;;;;;;;6.63;3.08;;;;;;;12.57;35.11;100775.13;6294863;28;20040;-76
2022/04/13 08:01:36;;;;;;;5.95;2.75;;;;;;;12.73;33.29;100771.63;6295906;28;20050;-77
2022/04/13 08:04:37;;;;;;;5.15;3.08;;;;;;;12.82;34.16;100771.06;6336722;28;20058;-77
2022/04/13 08:07:38;;;;;;;5.85;3.10;;;;;;;13.13;32.43;100772.69;6319736;28;20427;-76
2022/04/13 08:10:38;;;;;;;7.15;3.42;;;;;;;13.01;29.27;100771.69;6336403;28;20412;-77
2022/04/13 08:13:39;;;;;;;3.97;2.47;;;;;;;13.02;30.10;100769.91;6336259;28;20090;-77
2022/04/13 08:16:40;;;;;;;5.18;3.00;;;;;;;13.08;32.11;100774.78;6320741;28;20117;-77
2022/04/13 08:19:42;;;;;;;7.07;2.85;;;;;;;13.43;31.63;100775.28;6312210;28;20052;-77
2022/04/13 08:22:46;;;;;;;10.88;4.43;;;;;;;13.64;32.45;100770.47;6304590;28;20184;-77
2022/04/13 08:25:47;;;;;;;6.22;3.45;;;;;;;13.82;31.93;100770.28;6306666;28;20523;-77
2022/04/13 08:28:48;;;;;;;4.90;2.70;;;;;;;13.96;31.15;100766.75;6295530;28;20040;-77
2022/04/13 08:31:48;;;;;;;4.07;2.75;;;;;;;14.00;30.38;100765.63;6322793;28;20050;-77
2022/04/13 08:34:53;;;;;;;4.43;2.55;;;;;;;14.09;27.75;100765.88;6336178;28;20075;-77
2022/04/13 08:37:54;;;;;;;6.32;2.65;;;;;;;14.12;29.35;100762.19;6320551;28;20079;-77
2022/04/13 08:40:58;;;;;;;5.60;2.95;;;;;;;14.27;27.60;100758.59;6336217;28;20043;-77
2022/04/13 08:44:04;;;;;;;5.15;3.05;;;;;;;14.17;27.85;100754.88;6320390;28;20051;-77
2022/04/13 08:47:11;;;;;;;5.07;2.70;;;;;;;14.69;31.22;100755.88;6319043;28;20143;-77
2022/04/13 08:50:12;;;;;;;3.85;2.50;;;;;;;14.55;25.75;100755.94;6335812;28;20050;-76
2022/04/13 08:53:17;;;;;;;3.80;2.50;;;;;;;14.72;26.42;100750.41;6322738;28;20136;-77
2022/04/13 08:56:19;;;;;;;4.80;2.42;;;;;;;14.31;25.95;100751.38;6295128;28;20163;-77
2022/04/13 08:59:35;;;;;;;5.10;2.60;;;;;;;14.73;24.71;100749.47;6279411;28;20053;-72
2022/04/13 09:02:51;;;;;;;2.95;1.98;;;;;;;14.75;28.22;100744.97;6292137;28;20048;-72
2022/04/13 09:05:55;;;;;;;4.68;2.20;;;;;;;15.20;29.48;100740.13;6293651;28;20059;-72
2022/04/13 09:09:00;;;;;;;4.43;2.35;;;;;;;15.42;27.35;100744.75;6294761;28;20041;-73
2022/04/13 09:12:03;;;;;;;5.32;2.42;;;;;;;15.64;30.02;100745.84;6294771;28;20455;-76
2022/04/13 09:15:05;;;;;;;5.38;2.10;;;;;;;15.24;22.53;100738.97;6293171;28;20060;-76
2022/04/13 09:18:08;;;;;;;6.40;2.50;;;;;;;15.74;25.12;100743.44;6293622;28;20067;-77
2022/04/13 09:21:12;;;;;;;5.93;2.40;;;;;;;15.96;26.86;100729.53;6294758;28;20051;-77
2022/04/13 09:24:14;;;;;;;8.32;2.13;;;;;;;16.18;23.76;100729.66;6310147;28;20059;-77
2022/04/13 09:27:16;;;;;;;;;;;;;;;16.07;24.45;100733.06;6293877;28;20523;-77
2022/04/13 09:30:16;;;;;;;2.97;2.05;;;;;;;15.91;26.18;100722.81;6293370;28;19927;-77
2022/04/13 09:33:17;;;;;;;9.20;2.10;;;;;;;16.15;24.83;100722.00;6293463;28;20053;-77
2022/04/13 09:36:18;;;;;;;16.05;4.07;;;;;;;16.41;26.73;100721.84;6297829;28;20058;-77
2022/04/13 09:39:19;;;;;;;4.65;2.53;;;;;;;16.53;24.19;100705.09;6281546;28;20040;-77
2022/04/13 09:42:26;;;;;;;5.30;2.43;;;;;;;16.72;23.71;100718.59;6297857;28;20045;-77
2022/04/13 09:45:32;;;;;;;6.45;2.40;;;;;;;17.08;23.55;100707.97;6297747;28;20289;-77
2022/04/13 09:48:34;;;;;;;4.10;2.40;;;;;;;16.81;23.69;100713.59;6314530;28;20459;-77
2022/04/13 09:51:37;;;;;;;5.60;2.60;;;;;;;16.10;23.74;100711.81;6297630;28;20049;-77
2022/04/13 09:54:48;;;;;;;5.13;2.67;;;;;;;16.75;25.63;100700.84;6314286;28;20056;-77
2022/04/13 09:57:49;;;;;;;6.72;3.10;;;;;;;17.28;26.53;100701.16;6298878;28;20169;-77
2022/04/13 10:00:55;;;;;;;6.57;3.00;;;;;;;17.17;23.73;100703.78;6298763;28;20045;-77
2022/04/13 10:03:56;;;;;;;6.93;2.78;;;;;;;17.14;24.38;100699.59;6297325;28;20300;-77
2022/04/13 10:07:17;;;;;;;8.63;2.95;;;;;;;17.07;24.60;100698.38;6297313;28;20048;-77
2022/04/13 10:10:23;;;;;;;5.80;3.13;;;;;;;17.25;24.09;100704.84;6298581;28;20032;-77
2022/04/13 10:13:33;;;;;;;7.15;3.22;;;;;;;17.39;24.71;100697.66;6296931;28;20048;-77
2022/04/13 10:16:35;;;;;;;5.00;2.65;;;;;;;17.34;23.51;100692.75;6297129;28;20056;-73
2022/04/13 10:19:37;;;;;;;5.10;2.85;;;;;;;17.44;22.10;100690.19;6297055;28;20044;-72
2022/04/13 10:23:01;;;;;;;12.65;3.40;;;;;;;17.41;22.91;100690.47;6296974;28;20056;-73
2022/04/13 10:26:10;;;;;;;9.52;3.30;;;;;;;17.60;23.14;100690.66;6328114;28;20067;-72
2022/04/13 10:29:17;;;;;;;6.70;2.95;;;;;;;16.98;22.73;100688.56;6323469;28;20119;-74
2022/04/13 10:32:23;;;;;;;4.07;2.50;;;;;;;17.08;22.41;100685.09;6293009;28;20543;-73
2022/04/13 10:35:26;;;;;;;6.53;2.35;;;;;;;17.08;22.49;100682.44;6302273;28;20044;-73
2022/04/13 10:38:27;;;;;;;4.57;2.83;;;;;;;17.55;22.24;100687.56;6298578;28;20484;-73
2022/04/13 10:41:29;;;;;;;4.28;2.40;;;;;;;17.68;25.74;100679.47;6304958;28;20101;-73
2022/04/13 10:44:37;;;;;;;6.97;2.35;;;;;;;18.12;23.39;100683.81;6321731;28;20121;-73
2022/04/13 10:47:47;;;;;;;4.10;2.40;;;;;;;18.17;23.01;100691.34;6321707;28;20048;-72
2022/04/13 10:50:59;;;;;;;4.72;2.60;;;;;;;18.61;22.69;100688.56;6323196;28;20039;-73
2022/04/13 10:54:06;;;;;;;5.63;2.50;;;;;;;18.77;23.30;100683.66;6338443;28;20051;-73
2022/04/13 10:57:08;;;;;;;3.28;1.90;;;;;;;18.61;19.57;100683.28;6297404;28;20049;-74
2022/04/13 11:00:10;;;;;;;3.70;2.10;;;;;;;18.46;21.72;100683.63;6279535;28;20053;-73
2022/04/13 11:03:12;;;;;;;2.95;2.17;;;;;;;18.06;21.15;100683.47;6313488;28;20060;-73
2022/04/13 11:06:13;;;;;;;2.80;2.08;;;;;;;18.02;19.26;100684.69;6304287;28;20381;-73
2022/04/13 11:09:21;;;;;;;3.78;2.28;;;;;;;18.55;20.26;100671.41;6322404;28;20039;-73
2022/04/13 11:12:25;;;;;;;3.70;2.22;;;;;;;18.88;19.88;100658.97;6336924;28;20044;-73
2022/04/13 11:15:50;;;;;;;5.03;2.25;;;;;;;18.16;18.61;100658.00;6295585;28;20063;-73
2022/04/13 11:19:06;;;;;;;3.58;2.20;;;;;;;18.04;20.87;100654.56;6296235;28;20063;-73
2022/04/13 11:22:06;;;;;;;3.58;2.55;;;;;;;18.02;20.84;100648.56;6318139;28;20143;-73
2022/04/13 11:25:07;;;;;;;5.63;2.10;;;;;;;17.40;21.16;100639.50;6295563;28;20040;-73
2022/04/13 11:28:27;;;;;;;3.03;2.00;;;;;;;18.30;21.83;100644.47;6295973;28;20467;-73
2022/04/13 11:31:28;;;;;;;3.00;1.98;;;;;;;18.79;20.11;100642.09;6295293;28;20045;-77
2022/04/13 11:34:29;;;;;;;4.25;2.20;;;;;;;18.63;18.98;100631.97;6295338;28;20476;-78
2022/04/13 11:37:36;;;;;;;6.13;2.00;;;;;;;18.39;19.19;100632.28;6295125;28;20041;-78
2022/04/13 11:41:03;;;;;;;2.90;1.63;;;;;;;18.28;19.70;100629.69;6304439;28;20085;-77
2022/04/13 11:44:17;;;;;;;3.55;2.17;;;;;;;18.61;19.23;100622.50;6309876;28;20052;-78
2022/04/13 11:47:19;;;;;;;3.65;1.98;;;;;;;18.82;17.47;100620.69;6294927;28;20037;-78
2022/04/13 11:50:22;;;;;;;3.80;2.00;;;;;;;18.24;18.09;100621.22;6311869;28;20047;-78
2022/04/13 11:53:23;;;;;;;3.15;1.98;;;;;;;18.58;18.03;100620.13;6294855;28;20056;-78
2022/04/13 11:56:32;;;;;;;2.97;1.85;;;;;;;18.83;18.46;100617.06;6316007;28;20054;-78
2022/04/13 11:59:47;;;;;;;4.78;2.00;;;;;;;19.20;20.41;100616.50;6298924;28;20097;-78
2022/04/13 12:02:47;;;;;;;5.82;2.15;;;;;;;19.75;19.76;100608.09;6311591;28;20045;-78
2022/04/13 12:05:51;;;;;;;6.70;2.10;;;;;;;19.80;20.13;100616.44;6294853;28;20063;-78
2022/04/13 12:08:55;;;;;;;3.92;1.92;;;;;;;19.27;18.09;100599.13;6311493;28;20585;-78
2022/04/13 12:11:56;;;;;;;3.03;2.30;;;;;;;19.30;20.06;100612.06;6294361;28;20059;-73
2022/04/13 12:14:57;;;;;;;4.60;2.07;;;;;;;19.44;18.20;100608.19;6277679;28;20446;-73
2022/04/13 12:17:58;;;;;;;2.63;1.97;;;;;;;19.11;16.73;100610.22;6277662;28;20052;-73
2022/04/13 12:21:14;;;;;;;2.55;1.85;;;;;;;18.72;17.15;100596.00;6311282;28;20606;-73
2022/04/13 12:24:15;;;;;;;2.83;1.80;;;;;;;19.36;18.49;100604.56;6294569;28;20051;-73
2022/04/13 12:27:15;;;;;;;2.63;2.07;;;;;;;19.68;18.09;100588.41;6311062;28;20036;-73
2022/04/13 12:30:17;;;;;;;2.80;1.85;;;;;;;19.68;17.48;100578.66;6281469;28;20046;-73
2022/04/13 12:33:23;;;;;;;5.15;1.98;;;;;;;19.62;20.12;100583.66;6280064;28;20051;-73
2022/04/13 12:36:24;;;;;;;1.95;1.30;;;;;;;19.00;18.29;100575.09;6303329;28;20044;-74
2022/04/13 12:39:34;;;;;;;2.20;1.53;;;;;;;19.43;19.56;100569.44;6294153;28;20091;-73
2022/04/13 12:42:35;;;;;;;2.00;1.80;;;;;;;19.55;18.90;100562.22;6277368;28;20420;-74
2022/04/13 12:45:36;;;;;;;2.67;1.80;;;;;;;19.12;17.54;100563.44;6310823;28;20048;-78
2022/04/13 12:48:37;;;;;;;3.50;1.70;;;;;;;19.56;19.05;100563.03;6294070;28;20067;-78
2022/04/13 12:51:38;;;;;;;2.33;1.80;;;;;;;19.65;16.46;100554.28;6293768;28;20093;-78
2022/04/13 12:54:41;;;;;;;2.50;1.70;;;;;;;19.55;17.06;100554.28;6301858;28;20273;-78
2022/04/13 12:57:42;;;;;;;2.45;1.70;;;;;;;19.56;19.58;100555.97;6296626;28;20052;-78
2022/04/13 13:00:50;;;;;;;6.20;1.77;;;;;;;19.42;16.18;100554.56;6335718;28;20051;-78
2022/04/13 13:03:52;;;;;;;2.60;1.80;;;;;;;18.93;19.12;100545.72;6302170;28;20135;-78
2022/04/13 13:07:00;;;;;;;;;;;;;;;18.57;16.87;100557.66;6310663;28;20040;-78
2022/04/13 13:10:02;;;;;;;2.90;2.00;;;;;;;18.81;16.80;100545.00;6309309;28;19920;-78
2022/04/13 13:13:17;;;;;;;3.70;1.98;;;;;;;18.81;16.82;100542.34;6313368;28;20114;-78
2022/04/13 13:16:36;;;;;;;6.57;1.80;;;;;;;18.98;18.12;100524.97;6299874;28;20040;-78
2022/04/13 13:19:37;;;;;;;3.50;2.13;;;;;;;18.80;16.22;100531.91;6299864;28;20076;-78
2022/04/13 13:22:45;;;;;;;3.70;2.10;;;;;;;18.63;15.81;100534.19;6298743;28;20714;-77
2022/04/13 13:25:46;;;;;;;2.92;1.70;;;;;;;18.56;18.27;100535.69;6298315;28;20052;-78
2022/04/13 13:28:47;;;;;;;2.60;1.97;;;;;;;18.62;17.38;100535.16;6265111;28;20412;-78
2022/04/13 13:31:48;;;;;;;6.47;2.00;;;;;;;18.47;17.77;100525.91;6281786;28;20475;-78
2022/04/13 13:35:00;;;;;;;5.60;2.22;;;;;;;18.42;18.85;100533.41;6298360;28;20055;-78
2022/04/13 13:38:09;;;;;;;3.70;2.17;;;;;;;18.34;18.69;100534.06;6299448;28;20392;-78
2022/04/13 13:41:11;;;;;;;5.72;2.17;;;;;;;18.33;19.35;100527.97;6298071;28;20083;-78
2022/04/13 13:44:22;;;;;;;6.70;2.40;;;;;;;18.29;19.45;100528.38;6298023;28;20056;-78
2022/04/13 13:47:25;;;;;;;3.53;2.10;;;;;;;18.01;19.13;100517.50;6298200;28;20057;-78
2022/04/13 13:50:27;;;;;;;7.22;2.67;;;;;;;18.08;20.03;100515.19;6297632;28;20109;-78
2022/04/13 13:53:28;;;;;;;4.97;2.40;;;;;;;18.49;18.69;100523.97;6315802;28;20048;-77
2022/04/13 13:56:29;;;;;;;3.90;2.20;;;;;;;18.41;18.63;100521.16;6305730;28;20056;-77
2022/04/13 13:59:30;;;;;;;3.33;2.10;;;;;;;18.08;19.82;100515.19;6313219;28;20468;-77
2022/04/13 14:02:32;;;;;;;4.33;2.30;;;;;;;18.11;20.41;100515.75;6324244;28;20040;-77
2022/04/13 14:05:34;;;;;;;5.38;2.40;;;;;;;17.93;18.74;100509.38;6289108;28;20294;-78
2022/04/13 14:08:35;;;;;;;3.60;2.35;;;;;;;17.83;18.35;100509.34;6339535;28;20056;-77
2022/04/13 14:11:36;;;;;;;4.88;2.47;;;;;;;17.85;19.29;100509.19;6305929;28;20125;-77